createdAt,value
2023-05-03T00:04:16.928Z,8.43
2023-05-03T00:09:19.863Z,7.13
2023-05-03T00:14:22.571Z,8.88
2023-05-03T00:19:31.700Z,8.18
2023-05-03T00:24:35.626Z,8.10
2023-05-03T00:29:38.841Z,7.22
2023-05-03T00:34:43.105Z,7.55
2023-05-03T00:39:45.892Z,6.63
2023-05-03T00:44:48.672Z,6.95
2023-05-03T00:49:52.871Z,6.15
2023-05-03T00:54:55.611Z,7.10
2023-05-03T00:59:58.944Z,6.93
2023-05-03T01:05:03.434Z,7.10
2023-05-03T01:10:18.798Z,6.70
2023-05-03T01:15:33.516Z,7.05
2023-05-03T01:20:38.582Z,7.00
2023-05-03T01:25:42.755Z,7.68
2023-05-03T01:30:47.123Z,8.65
2023-05-03T01:35:55.987Z,7.32
2023-05-03T01:41:03.473Z,7.13
2023-05-03T01:46:06.611Z,6.72
2023-05-03T01:51:09.546Z,8.00
2023-05-03T01:56:13.843Z,7.32
2023-05-03T02:01:16.637Z,6.10
2023-05-03T02:06:19.457Z,6.38
2023-05-03T02:11:23.585Z,9.63
2023-05-03T02:16:27.614Z,9.07
2023-05-03T02:21:31.511Z,7.40
2023-05-03T02:26:35.648Z,7.32
2023-05-03T02:31:39.321Z,8.52
2023-05-03T02:36:42.956Z,12.07
2023-05-03T02:41:47.276Z,8.15
2023-05-03T02:46:50.444Z,7.30
2023-05-03T02:51:53.947Z,7.88
2023-05-03T02:56:58.106Z,7.60
2023-05-03T03:02:00.943Z,8.57
2023-05-03T03:07:03.911Z,7.78
2023-05-03T03:12:08.312Z,8.95
2023-05-03T03:17:11.794Z,8.68
2023-05-03T03:22:15.107Z,8.05
2023-05-03T03:27:19.308Z,8.43
2023-05-03T03:32:22.749Z,9.18
2023-05-03T03:37:25.787Z,8.55
2023-05-03T03:42:31.625Z,7.18
2023-05-03T03:47:34.863Z,8.00
2023-05-03T03:52:37.925Z,8.10
2023-05-03T03:57:42.415Z,8.82
2023-05-03T04:02:46.987Z,7.75
2023-05-03T04:07:53.663Z,8.48
2023-05-03T04:12:58.495Z,9.10
2023-05-03T04:18:01.407Z,8.80
2023-05-03T04:23:04.543Z,9.07
2023-05-03T04:28:09.998Z,9.50
2023-05-03T04:33:17.399Z,9.52
2023-05-03T04:38:20.556Z,9.02
2023-05-03T04:43:25.054Z,8.48
2023-05-03T04:48:27.951Z,9.98
2023-05-03T04:53:32.020Z,9.95
2023-05-03T04:58:44.918Z,9.35
2023-05-03T05:03:50.348Z,7.97
2023-05-03T05:08:57.862Z,8.13
2023-05-03T05:14:02.095Z,8.98
2023-05-03T05:19:05.313Z,8.95
2023-05-03T05:24:08.467Z,10.05
2023-05-03T05:29:13.675Z,10.15
2023-05-03T05:34:16.519Z,10.80
2023-05-03T05:39:21.121Z,9.75
2023-05-03T05:44:26.022Z,9.77
2023-05-03T05:49:29.985Z,13.07
2023-05-03T05:54:33.940Z,10.02
2023-05-03T05:59:38.630Z,11.13
2023-05-03T06:04:41.886Z,11.45
2023-05-03T06:09:45.055Z,9.13
2023-05-03T06:15:01.947Z,8.93
2023-05-03T06:20:14.259Z,7.35
2023-05-03T06:25:19.566Z,7.63
2023-05-03T06:30:29.096Z,7.00
2023-05-03T06:35:37.727Z,7.13
2023-05-03T06:40:42.453Z,7.00
2023-05-03T06:45:48.778Z,7.03
2023-05-03T06:50:51.655Z,5.97
2023-05-03T06:55:54.392Z,6.47
2023-05-03T07:00:58.627Z,6.07
2023-05-03T07:06:04.124Z,6.05
2023-05-03T07:11:07.647Z,5.30
2023-05-03T07:16:14.469Z,5.93
2023-05-03T07:21:18.083Z,7.93
2023-05-03T07:26:21.786Z,5.68
2023-05-03T07:31:26.030Z,5.32
2023-05-03T07:36:29.079Z,4.35
2023-05-03T07:41:33.862Z,4.40
2023-05-03T07:46:38.117Z,4.63
2023-05-03T07:51:41.115Z,5.15
2023-05-03T07:56:43.911Z,4.97
2023-05-03T08:01:48.277Z,5.05
2023-05-03T08:06:51.183Z,5.05
2023-05-03T08:11:56.140Z,5.05
2023-05-03T08:17:02.048Z,5.13
2023-05-03T08:22:05.603Z,5.47
2023-05-03T08:27:09.587Z,5.35
2023-05-03T08:32:16.135Z,5.70
2023-05-03T08:37:18.841Z,5.55
2023-05-03T08:42:25.163Z,4.47
2023-05-03T08:47:36.222Z,5.25
2023-05-03T08:52:40.889Z,5.13
2023-05-03T08:57:44.938Z,5.78
2023-05-03T09:02:52.636Z,5.90
2023-05-03T09:21:23.166Z,5.50
2023-05-03T09:26:34.565Z,5.00
2023-05-03T09:31:59.329Z,6.50
2023-05-03T09:37:04.352Z,4.68
2023-05-03T09:42:13.135Z,3.40
2023-05-03T09:47:17.244Z,5.15
2023-05-03T09:52:23.288Z,4.20
2023-05-03T09:57:27.201Z,4.25
2023-05-03T10:02:33.068Z,5.07
2023-05-03T10:12:46.503Z,4.30
2023-05-03T10:17:54.627Z,5.00
2023-05-03T10:23:12.605Z,4.10
2023-05-03T10:28:15.920Z,4.03
2023-05-03T10:33:33.284Z,4.28
2023-05-03T10:38:39.404Z,3.55
2023-05-03T10:43:44.266Z,4.60
2023-05-03T10:49:16.288Z,3.70
2023-05-03T10:54:20.661Z,3.70
2023-05-03T10:59:26.129Z,3.35
2023-05-03T11:04:40.568Z,3.67
2023-05-03T11:09:47.588Z,3.42
2023-05-03T11:14:51.696Z,3.53
2023-05-03T11:19:54.946Z,4.28
2023-05-03T11:24:59.255Z,3.60
2023-05-03T11:30:02.011Z,3.53
2023-05-03T11:35:07.250Z,3.75
2023-05-03T11:40:18.281Z,3.20
2023-05-03T11:45:25.109Z,2.90
2023-05-03T11:50:44.258Z,3.30
2023-05-03T11:55:49.909Z,3.33
2023-05-03T12:00:55.350Z,2.38
2023-05-03T12:05:58.765Z,2.55
2023-05-03T12:11:06.871Z,2.78
2023-05-03T12:16:14.943Z,3.10
2023-05-03T12:26:29.377Z,3.40
2023-05-03T12:31:35.000Z,2.88
2023-05-03T12:36:38.992Z,3.05
2023-05-03T12:46:54.854Z,2.50
2023-05-03T12:57:15.323Z,2.20
2023-05-03T13:03:20.166Z,2.97
2023-05-03T13:07:43.923Z,2.00
2023-05-03T13:12:48.846Z,2.33
2023-05-03T13:17:52.633Z,2.90
2023-05-03T13:22:58.733Z,2.43
2023-05-03T13:28:03.917Z,2.35
2023-05-03T13:33:07.437Z,2.10
2023-05-03T13:38:10.441Z,2.35
2023-05-03T13:43:15.159Z,1.95
2023-05-03T13:48:19.288Z,1.90
2023-05-03T13:53:22.927Z,2.17
2023-05-03T13:58:27.023Z,2.08
2023-05-03T14:03:30.258Z,2.03
2023-05-03T14:08:33.120Z,2.08
2023-05-03T14:13:53.866Z,1.73
2023-05-03T14:18:58.844Z,3.03
2023-05-03T14:24:03.428Z,1.25
2023-05-03T14:29:08.546Z,1.63
2023-05-03T14:34:11.317Z,1.93
2023-05-03T14:39:16.284Z,1.90
2023-05-03T14:44:20.605Z,2.17
2023-05-03T14:49:23.484Z,1.50
2023-05-03T14:54:28.901Z,1.95
2023-05-03T14:59:33.912Z,2.08
2023-05-03T15:04:39.623Z,2.05
2023-05-03T15:09:42.972Z,2.30
2023-05-03T15:14:48.962Z,1.92
2023-05-03T15:19:52.672Z,2.05
2023-05-03T15:24:55.945Z,2.35
2023-05-03T15:30:00.514Z,2.00
2023-05-03T15:35:05.773Z,2.10
2023-05-03T15:40:11.753Z,2.30
2023-05-03T15:45:15.917Z,2.83
2023-05-03T15:50:19.890Z,1.70
2023-05-03T15:55:23.347Z,1.83
2023-05-03T16:00:27.791Z,1.80
2023-05-03T16:05:31.723Z,2.00
2023-05-03T16:10:34.777Z,1.83
2023-05-03T16:15:39.648Z,1.90
2023-05-03T16:20:42.425Z,1.85
2023-05-03T16:25:45.151Z,3.70
2023-05-03T16:30:49.769Z,4.43
2023-05-03T16:35:52.613Z,1.73
2023-05-03T16:40:55.468Z,2.53
2023-05-03T16:46:01.447Z,1.98
2023-05-03T16:51:04.488Z,2.33
2023-05-03T16:56:07.471Z,2.60
2023-05-03T17:01:11.720Z,2.15
2023-05-03T17:06:15.702Z,1.85
2023-05-03T17:11:18.499Z,1.92
2023-05-03T17:16:23.252Z,1.92
2023-05-03T17:21:27.454Z,2.20
2023-05-03T17:26:30.336Z,4.75
2023-05-03T17:31:34.529Z,3.25
2023-05-03T17:36:37.793Z,2.08
2023-05-03T17:41:42.733Z,2.30
2023-05-03T17:46:48.849Z,1.92
2023-05-03T17:51:52.079Z,1.77
2023-05-03T17:56:57.733Z,2.47
2023-05-03T18:02:05.587Z,2.05
2023-05-03T18:07:08.557Z,1.38
2023-05-03T18:12:11.438Z,2.20
2023-05-03T18:17:15.728Z,2.10
2023-05-03T18:22:22.242Z,1.85
2023-05-03T18:27:26.284Z,2.00
2023-05-03T18:32:30.367Z,2.17
2023-05-03T18:37:33.131Z,1.80
2023-05-03T18:42:35.936Z,2.95
2023-05-03T18:47:40.844Z,2.30
2023-05-03T18:52:44.948Z,1.77
2023-05-03T18:57:48.068Z,2.50
2023-05-03T19:02:52.489Z,2.40
2023-05-03T19:07:55.485Z,3.30
2023-05-03T19:12:58.492Z,4.45
2023-05-03T19:18:03.591Z,6.22
2023-05-03T19:23:06.709Z,3.58
2023-05-03T19:28:10.582Z,2.80
2023-05-03T19:33:14.761Z,3.00
2023-05-03T19:38:17.469Z,3.22
2023-05-03T19:43:20.399Z,2.67
2023-05-03T19:48:24.769Z,2.75
2023-05-03T19:53:28.749Z,2.67
2023-05-03T19:58:32.059Z,3.05
2023-05-03T20:03:36.430Z,3.55
2023-05-03T20:08:39.281Z,3.50
2023-05-03T20:13:42.652Z,3.28
2023-05-03T20:18:47.749Z,2.97
2023-05-03T20:23:51.253Z,3.20
2023-05-03T20:28:54.034Z,3.95
2023-05-03T20:33:58.390Z,3.50
2023-05-03T20:39:01.144Z,2.58
2023-05-03T20:44:04.559Z,3.15
2023-05-03T20:49:10.116Z,3.03
2023-05-03T20:54:13.407Z,2.53
2023-05-03T20:59:17.039Z,2.42
2023-05-03T21:04:21.244Z,2.33
2023-05-03T21:09:24.388Z,2.78
2023-05-03T21:14:28.628Z,3.50
2023-05-03T21:19:35.078Z,5.53
2023-05-03T21:24:38.895Z,2.80
2023-05-03T21:29:41.613Z,2.65
2023-05-03T21:34:46.148Z,3.15
2023-05-03T21:40:00.504Z,2.58
2023-05-03T21:45:05.402Z,2.72
2023-05-03T21:50:10.533Z,3.00
2023-05-03T21:55:13.347Z,3.40
2023-05-03T22:00:20.848Z,3.28
2023-05-03T22:05:26.692Z,3.30
2023-05-03T22:10:29.390Z,3.97
2023-05-03T22:15:32.188Z,3.63
2023-05-03T22:20:36.281Z,2.90
2023-05-03T22:25:39.041Z,2.97
2023-05-03T22:30:41.835Z,2.50
2023-05-03T22:35:45.982Z,2.97
2023-05-03T22:40:48.760Z,3.05
2023-05-03T22:45:51.473Z,2.70
2023-05-03T22:50:55.661Z,3.08
2023-05-03T22:55:58.907Z,2.72
2023-05-03T23:01:01.739Z,2.40
2023-05-03T23:06:06.340Z,3.45
2023-05-03T23:11:09.383Z,2.90
2023-05-03T23:16:12.376Z,2.60
2023-05-03T23:21:16.498Z,2.72
2023-05-03T23:26:19.940Z,2.97
2023-05-03T23:31:23.064Z,3.35
2023-05-03T23:36:27.910Z,2.95
2023-05-03T23:41:30.819Z,2.90
2023-05-03T23:46:34.524Z,3.40
2023-05-03T23:51:38.743Z,2.70
2023-05-03T23:56:41.738Z,2.70
